Time;durP1;ratioP1;P1;durP2;ratioP2;P2;SDS_P1;SDS_P2;PMS_P1;PMS_P2;Temp;Humidity;BMP_temperature;BMP_pressure;BME280_temperature;BME280_humidity;BME280_pressure;Samples;Min_cycle;Max_cycle;Signal;HPM_P1;HPM_P2
2023/02/25 00:01:11;;;;;;;1.90;1.80;;;;;;;3.60;70.74;100156.59;5031218;28;20049;-41
2023/02/25 00:03:38;;;;;;;2.22;1.35;;;;;;;3.56;71.23;100162.44;5022646;28;20053;-43
2023/02/25 00:06:06;;;;;;;4.63;0.70;;;;;;;3.60;70.93;100159.16;5025738;28;20636;-42
2023/02/25 00:08:33;;;;;;;2.20;1.80;;;;;;;3.58;70.39;100167.63;5019440;28;20053;-44
2023/02/25 00:11:02;;;;;;;1.77;1.67;;;;;;;3.49;70.88;100164.78;5023451;28;20049;-43
2023/02/25 00:13:29;;;;;;;2.08;1.92;;;;;;;3.44;70.62;100164.66;5026123;28;20080;-43
2023/02/25 00:15:57;;;;;;;4.85;1.83;;;;;;;3.46;70.71;100160.44;5025388;28;20080;-41
2023/02/25 00:18:25;;;;;;;2.65;1.98;;;;;;;3.42;70.60;100164.63;5024505;28;20114;-42
2023/02/25 00:20:52;;;;;;;3.40;1.13;;;;;;;3.39;71.22;100168.78;5010689;28;20045;-43
2023/02/25 00:23:19;;;;;;;4.95;1.27;;;;;;;3.28;71.72;100166.78;5021829;28;20084;-40
2023/02/25 00:25:46;;;;;;;3.35;1.45;;;;;;;3.31;70.72;100171.97;5012204;28;20431;-43
2023/02/25 00:28:12;;;;;;;1.83;0.52;;;;;;;3.21;71.71;100181.09;5029201;28;20492;-45
2023/02/25 00:30:41;;;;;;;3.40;1.08;;;;;;;3.19;71.25;100169.94;5036122;28;20508;-43
2023/02/25 00:33:09;;;;;;;2.58;1.42;;;;;;;3.12;71.47;100172.28;5024956;28;20073;-41
2023/02/25 00:35:39;;;;;;;3.47;1.45;;;;;;;3.05;72.00;100172.09;5025541;28;20123;-45
2023/02/25 00:38:07;;;;;;;5.50;1.38;;;;;;;3.05;72.32;100171.22;5025617;28;20065;-42
2023/02/25 00:40:42;;;;;;;4.25;1.80;;;;;;;3.06;71.61;100181.50;5025977;28;20045;-40
2023/02/25 00:43:09;;;;;;;1.95;1.67;;;;;;;3.04;72.39;100178.03;5022448;28;20045;-43
2023/02/25 00:45:39;;;;;;;1.90;1.65;;;;;;;3.04;72.01;100172.91;5023516;28;20056;-42
2023/02/25 00:48:07;;;;;;;1.45;1.20;;;;;;;3.01;72.26;100175.38;5025363;28;20053;-42
2023/02/25 00:50:34;;;;;;;6.22;2.20;;;;;;;3.03;71.85;100176.28;5029081;28;20085;-44
2023/02/25 00:53:01;;;;;;;2.45;2.33;;;;;;;2.97;72.73;100170.97;5028388;28;20076;-43
2023/02/25 00:55:32;;;;;;;2.40;2.20;;;;;;;2.94;72.71;100160.69;5028844;28;20427;-41
2023/02/25 00:58:00;;;;;;;3.58;1.88;;;;;;;2.94;72.25;100160.69;5029699;28;20053;-46
2023/02/25 01:00:28;;;;;;;3.85;1.90;;;;;;;2.93;71.50;100161.47;5041610;28;20119;-39
2023/02/25 01:02:56;;;;;;;8.38;2.40;;;;;;;2.88;71.50;100160.47;5043843;28;20390;-42
2023/02/25 01:05:23;;;;;;;2.10;1.75;;;;;;;2.90;71.75;100163.97;5030736;28;20045;-43
2023/02/25 01:07:50;;;;;;;3.80;1.50;;;;;;;2.88;71.27;100161.34;5029293;28;20045;-42
2023/02/25 01:10:17;;;;;;;4.32;1.45;;;;;;;2.85;72.03;100165.50;5022941;28;20452;-41
2023/02/25 01:12:43;;;;;;;2.75;1.20;;;;;;;2.85;72.01;100168.94;5017080;28;20432;-44
2023/02/25 01:15:11;;;;;;;7.00;1.98;;;;;;;2.82;71.75;100172.28;5015290;28;20095;-41
2023/02/25 01:17:37;;;;;;;6.05;3.15;;;;;;;2.80;72.33;100171.34;5030098;28;20404;-44
2023/02/25 01:20:10;;;;;;;2.05;1.70;;;;;;;2.79;72.68;100182.41;5030072;28;20115;-44
2023/02/25 01:22:40;;;;;;;1.33;1.23;;;;;;;2.75;72.01;100165.22;5023954;28;20046;-43
2023/02/25 01:25:12;;;;;;;5.78;1.90;;;;;;;2.79;72.22;100166.19;5026627;28;20041;-40
2023/02/25 01:27:41;;;;;;;4.63;1.73;;;;;;;2.76;71.98;100171.19;5030029;28;20049;-44
2023/02/25 01:30:11;;;;;;;3.60;2.05;;;;;;;2.72;72.60;100164.25;5040726;28;20064;-44
2023/02/25 01:32:39;;;;;;;3.08;1.63;;;;;;;2.73;71.88;100171.97;5029455;28;20057;-42
2023/02/25 01:35:08;;;;;;;2.50;1.98;;;;;;;2.72;71.98;100167.69;5029895;28;20705;-40
2023/02/25 01:37:36;;;;;;;3.17;1.58;;;;;;;2.69;71.61;100171.03;5028608;28;20495;-43
2023/02/25 01:40:05;;;;;;;4.07;1.70;;;;;;;2.66;72.05;100165.81;5020663;28;20061;-44
2023/02/25 01:42:33;;;;;;;4.90;1.52;;;;;;;2.65;71.58;100161.50;5009442;28;20065;-44
2023/02/25 01:48:02;;;;;;;3.75;0.60;;;;;;;2.59;72.22;100168.09;5057603;27;20383;-40
2023/02/25 01:50:36;;;;;;;2.97;0.50;;;;;;;2.52;73.42;100167.91;5023254;28;20045;-42
2023/02/25 01:53:04;;;;;;;1.80;0.85;;;;;;;2.48;73.35;100171.19;5024827;28;20682;-44
2023/02/25 01:55:31;;;;;;;3.78;0.70;;;;;;;2.47;72.34;100166.91;5019848;28;20115;-43
2023/02/25 01:58:00;;;;;;;1.58;0.65;;;;;;;2.48;73.23;100175.44;5022969;28;20068;-43
2023/02/25 02:00:29;;;;;;;7.15;0.95;;;;;;;2.48;72.73;100166.09;5023924;28;20085;-42
2023/02/25 02:02:57;;;;;;;1.30;0.55;;;;;;;2.44;72.70;100167.66;5024376;28;20081;-43
2023/02/25 02:05:36;;;;;;;1.27;0.60;;;;;;;2.42;73.61;100163.31;5023655;28;20050;-43
2023/02/25 02:08:03;;;;;;;3.45;0.57;;;;;;;2.36;73.66;100166.53;5010764;28;20124;-41
2023/02/25 02:10:30;;;;;;;3.85;0.30;;;;;;;2.33;74.11;100166.44;5022359;28;20104;-45
2023/02/25 02:12:56;;;;;;;0.80;0.57;;;;;;;2.36;73.25;100166.53;5023827;28;20254;-43
2023/02/25 02:15:23;;;;;;;4.00;0.77;;;;;;;2.30;73.58;100164.66;5023507;28;20080;-41
2023/02/25 02:20:54;;;;;;;6.63;1.80;;;;;;;2.71;71.62;100165.94;5063661;28;20380;-43
2023/02/25 02:29:14;;;;;;;4.68;0.43;;;;;;;2.55;73.45;100172.25;5030608;27;20413;-40
2023/02/25 02:31:55;;;;;;;1.27;0.32;;;;;;;2.59;73.04;100171.53;5000280;28;20051;-43
2023/02/25 02:34:40;;;;;;;0.57;0.25;;;;;;;2.55;74.66;100173.13;5014237;28;20051;-41
2023/02/25 02:42:39;;;;;;;1.30;1.15;;;;;;;2.59;73.66;100183.44;5062771;27;20398;-42
2023/02/25 02:47:48;;;;;;;7.82;1.95;;;;;;;3.05;72.74;100173.78;5080212;28;20397;-39
2023/02/25 02:50:25;;;;;;;1.90;0.38;;;;;;;2.83;73.87;100174.00;5043570;28;20049;-43
2023/02/25 02:52:57;;;;;;;2.83;0.75;;;;;;;2.81;72.91;100170.50;5062748;28;20045;-40
2023/02/25 02:55:31;;;;;;;5.95;0.63;;;;;;;2.72;74.42;100174.47;5049072;28;20106;-41
2023/02/25 02:58:06;;;;;;;2.65;0.73;;;;;;;2.76;73.58;100176.31;5039002;28;20048;-43
2023/02/25 03:00:38;;;;;;;3.25;0.47;;;;;;;2.75;73.95;100172.91;5022037;28;20053;-43
2023/02/25 03:03:13;;;;;;;1.27;0.47;;;;;;;2.77;74.24;100181.47;5012176;28;20049;-43
2023/02/25 03:05:44;;;;;;;3.45;0.52;;;;;;;2.81;74.36;100175.63;5045385;28;20088;-41
2023/02/25 03:08:18;;;;;;;2.83;0.65;;;;;;;2.77;73.41;100183.19;5075554;28;20045;-42
2023/02/25 03:10:45;;;;;;;1.98;0.35;;;;;;;2.83;73.13;100179.13;5042473;28;20049;-38
2023/02/25 03:13:12;;;;;;;5.15;1.17;;;;;;;2.83;73.91;100179.13;5044456;28;20088;-44
2023/02/25 03:15:40;;;;;;;1.33;0.43;;;;;;;2.83;73.51;100171.44;5041921;28;20052;-42
2023/02/25 03:18:20;;;;;;;3.17;0.50;;;;;;;2.84;73.28;100169.75;5026867;28;20065;-43
2023/02/25 03:20:49;;;;;;;3.20;0.52;;;;;;;2.83;73.16;100168.88;5042834;28;20381;-40
2023/02/25 03:23:20;;;;;;;0.95;0.40;;;;;;;2.78;74.27;100180.69;5026738;28;20053;-43
2023/02/25 03:25:51;;;;;;;4.75;0.40;;;;;;;2.79;74.27;100182.41;5043782;28;20621;-44
2023/02/25 03:28:22;;;;;;;;;;;;;;;2.78;74.28;100174.69;5057925;28;20087;-39
2023/02/25 03:30:57;;;;;;;2.90;0.50;;;;;;;2.77;73.94;100173.81;5051778;28;19964;-44
2023/02/25 03:36:08;;;;;;;1.77;1.45;;;;;;;2.77;73.83;100183.19;5063021;28;20383;-42
2023/02/25 03:38:40;;;;;;;1.65;1.55;;;;;;;2.75;73.50;100185.69;5053788;28;20526;-42
2023/02/25 03:41:10;;;;;;;2.60;1.55;;;;;;;2.73;75.05;100177.09;5062813;28;20508;-44
2023/02/25 03:43:42;;;;;;;1.95;1.60;;;;;;;2.77;73.91;100181.47;5044969;28;20121;-44
2023/02/25 03:46:10;;;;;;;4.03;2.15;;;;;;;2.76;74.66;100182.31;5043512;28;20049;-43
2023/02/25 03:48:37;;;;;;;1.88;1.75;;;;;;;2.73;73.95;100191.59;5043373;28;20132;-40
2023/02/25 03:51:05;;;;;;;2.47;1.42;;;;;;;2.76;74.71;100187.41;5043149;28;20077;-43
2023/02/25 03:53:33;;;;;;;4.15;2.15;;;;;;;2.77;74.99;100184.03;5043516;28;20053;-45
2023/02/25 03:56:06;;;;;;;3.88;1.83;;;;;;;2.77;73.97;100178.91;5044186;28;20060;-43
2023/02/25 03:58:36;;;;;;;1.17;1.08;;;;;;;2.78;74.88;100190.03;5040556;28;20069;-43
2023/02/25 04:01:08;;;;;;;2.53;2.33;;;;;;;2.77;75.22;100194.25;5042634;28;20096;-44
2023/02/25 04:03:34;;;;;;;2.13;1.95;;;;;;;2.82;73.56;100192.75;5033875;28;20076;-40
2023/02/25 04:06:01;;;;;;;3.42;1.25;;;;;;;2.86;74.21;100200.47;5041734;28;20524;-42
2023/02/25 04:08:28;;;;;;;7.43;1.90;;;;;;;2.89;74.42;100198.03;5043125;28;20436;-44
2023/02/25 04:10:54;;;;;;;1.75;1.65;;;;;;;2.89;73.54;100208.25;5042750;28;20049;-42
2023/02/25 04:13:21;;;;;;;2.40;1.48;;;;;;;2.91;73.93;100198.97;5043736;28;20049;-45
2023/02/25 04:15:48;;;;;;;2.28;1.35;;;;;;;2.92;74.81;100193.91;5042994;28;20049;-40
2023/02/25 04:18:15;;;;;;;2.60;0.45;;;;;;;2.95;74.54;100206.75;5043433;28;20424;-42
2023/02/25 04:20:42;;;;;;;1.80;1.42;;;;;;;2.95;74.21;100198.22;5043818;28;20073;-45
2023/02/25 04:23:13;;;;;;;7.72;2.13;;;;;;;2.93;73.88;100199.84;5041884;28;20107;-44
2023/02/25 04:25:39;;;;;;;2.08;1.80;;;;;;;2.96;73.63;100199.97;5040431;28;20041;-41
2023/02/25 04:28:06;;;;;;;6.68;2.22;;;;;;;2.95;74.43;100200.78;5046597;28;20048;-42
2023/02/25 04:30:33;;;;;;;2.22;2.03;;;;;;;2.99;73.74;100200.06;5052383;28;20159;-43
2023/02/25 04:33:00;;;;;;;3.85;1.83;;;;;;;3.02;74.19;100195.03;5038599;28;20129;-43
2023/02/25 04:35:26;;;;;;;2.85;1.75;;;;;;;3.02;73.51;100200.16;5023538;28;20088;-45
2023/02/25 04:37:53;;;;;;;2.25;1.63;;;;;;;3.03;74.18;100201.88;5039905;28;20087;-42
2023/02/25 04:40:22;;;;;;;3.60;0.50;;;;;;;3.00;73.64;100201.78;5038403;28;20408;-40
2023/02/25 04:42:49;;;;;;;8.02;1.88;;;;;;;2.98;73.90;100208.56;5041582;28;20102;-43
2023/02/25 04:45:16;;;;;;;3.85;2.00;;;;;;;2.99;73.99;100210.28;5041087;28;20049;-41
2023/02/25 04:47:43;;;;;;;4.05;2.17;;;;;;;3.01;74.45;100213.75;5029550;28;20053;-46
2023/02/25 04:50:11;;;;;;;2.15;1.80;;;;;;;2.99;74.74;100205.19;5029531;28;20045;-42
2023/02/25 04:52:38;;;;;;;2.85;2.17;;;;;;;2.99;73.73;100215.41;5029432;28;20053;-42
2023/02/25 04:55:05;;;;;;;1.73;0.50;;;;;;;3.00;74.70;100212.03;5025355;28;20252;-39
2023/02/25 04:57:32;;;;;;;2.42;1.83;;;;;;;2.98;73.85;100218.81;5027277;28;20049;-42
2023/02/25 04:59:58;;;;;;;3.67;1.98;;;;;;;2.98;73.89;100213.69;5030507;28;20045;-42
2023/02/25 05:02:25;;;;;;;2.35;1.60;;;;;;;2.98;73.27;100223.91;5042435;28;20087;-43
2023/02/25 05:04:51;;;;;;;5.85;2.00;;;;;;;3.02;74.10;100218.06;5029808;28;20073;-43
2023/02/25 05:07:18;;;;;;;4.30;1.77;;;;;;;3.02;73.38;100227.44;5029432;28;20045;-41
2023/02/25 05:09:45;;;;;;;3.35;1.52;;;;;;;3.01;73.23;100218.88;5029280;28;20053;-40
2023/02/25 05:12:11;;;;;;;3.55;2.60;;;;;;;3.01;73.81;100226.53;5026184;28;20074;-42
2023/02/25 05:14:38;;;;;;;2.78;1.35;;;;;;;3.02;73.40;100220.63;5021617;28;20188;-44
2023/02/25 05:17:04;;;;;;;3.28;1.60;;;;;;;3.04;73.05;100224.09;5010260;28;20077;-42
2023/02/25 05:19:31;;;;;;;2.58;2.38;;;;;;;3.02;74.21;100230.88;5009865;28;20053;-41
2023/02/25 05:21:58;;;;;;;5.28;2.15;;;;;;;3.04;73.36;100236.88;5022047;28;20049;-42
2023/02/25 05:24:24;;;;;;;8.57;1.80;;;;;;;3.05;72.97;100241.22;5021825;28;20606;-42
2023/02/25 05:26:51;;;;;;;2.58;1.88;;;;;;;3.04;73.95;100233.47;5009555;28;20054;-41
2023/02/25 05:29:18;;;;;;;3.80;1.65;;;;;;;3.01;74.12;100247.03;5023845;28;20041;-40
2023/02/25 05:31:44;;;;;;;3.92;1.85;;;;;;;2.95;74.13;100244.28;5049078;28;20045;-42
2023/02/25 05:34:11;;;;;;;4.10;1.73;;;;;;;2.99;73.84;100238.44;5048909;28;20053;-44
2023/02/25 05:36:39;;;;;;;4.25;1.73;;;;;;;3.00;73.14;100247.84;5045823;28;20055;-40
2023/02/25 05:39:06;;;;;;;2.50;1.65;;;;;;;2.99;72.86;100251.25;5025349;28;20497;-43
2023/02/25 05:41:32;;;;;;;2.15;0.60;;;;;;;2.98;72.97;100246.06;5026574;28;20454;-41
2023/02/25 05:43:59;;;;;;;2.50;1.52;;;;;;;2.99;73.56;100246.13;5028978;28;20501;-43
2023/02/25 05:46:25;;;;;;;2.85;2.05;;;;;;;3.03;73.25;100250.50;5027285;28;20049;-42
2023/02/25 05:48:53;;;;;;;3.38;1.98;;;;;;;3.04;72.43;100244.56;5028679;28;20183;-41
2023/02/25 05:51:22;;;;;;;5.78;2.65;;;;;;;3.09;72.84;100252.41;5021066;28;20049;-43
2023/02/25 05:53:50;;;;;;;3.88;1.77;;;;;;;3.06;73.49;100253.16;5012431;28;20045;-43
2023/02/25 05:56:20;;;;;;;5.07;1.77;;;;;;;3.01;72.71;100254.69;5009269;28;20501;-41
2023/02/25 05:58:48;;;;;;;4.50;1.70;;;;;;;3.02;73.10;100253.03;5022000;28;20054;-42
2023/02/25 06:01:18;;;;;;;2.83;0.68;;;;;;;3.08;72.77;100258.34;5026326;28;20456;-40
2023/02/25 06:03:46;;;;;;;3.17;1.73;;;;;;;3.12;72.34;100257.63;5027307;28;20144;-40
2023/02/25 06:06:15;;;;;;;6.28;1.58;;;;;;;3.05;72.86;100256.56;5028360;28;20069;-43
2023/02/25 06:08:43;;;;;;;4.38;1.75;;;;;;;3.03;71.82;100250.50;5028554;28;20069;-42
2023/02/25 06:11:15;;;;;;;4.20;2.17;;;;;;;3.05;71.64;100258.25;5027504;28;20045;-42
2023/02/25 06:13:42;;;;;;;6.85;2.67;;;;;;;3.03;72.30;100258.19;5027249;28;20057;-48
2023/02/25 06:16:08;;;;;;;2.67;2.42;;;;;;;3.03;72.13;100247.06;5028009;28;20081;-42
2023/02/25 06:18:35;;;;;;;1.42;1.20;;;;;;;3.00;72.26;100255.53;5027561;28;20052;-40
2023/02/25 06:21:06;;;;;;;3.95;1.52;;;;;;;2.96;72.63;100256.25;5027279;28;20042;-43
2023/02/25 06:23:36;;;;;;;3.13;1.48;;;;;;;2.92;71.72;100254.41;5025742;28;20055;-45
2023/02/25 06:26:05;;;;;;;3.33;1.50;;;;;;;2.91;71.39;100257.81;5024402;28;20045;-40
2023/02/25 06:28:31;;;;;;;3.70;1.92;;;;;;;2.86;72.21;100256.78;5041700;28;20087;-41
2023/02/25 06:30:58;;;;;;;8.10;2.15;;;;;;;2.88;72.96;100255.16;5047115;28;20095;-41
2023/02/25 06:33:25;;;;;;;4.43;1.73;;;;;;;2.88;72.43;100263.69;5044730;28;20516;-45
2023/02/25 06:35:53;;;;;;;5.88;2.47;;;;;;;2.89;72.73;100264.56;5046484;28;20485;-43
2023/02/25 06:38:20;;;;;;;2.08;1.80;;;;;;;2.94;72.36;100269.00;5041010;28;20509;-43
2023/02/25 06:40:48;;;;;;;1.75;1.17;;;;;;;2.91;72.76;100268.03;5039953;28;20099;-42
2023/02/25 06:43:16;;;;;;;8.82;1.45;;;;;;;2.95;72.85;100272.44;5044525;28;20186;-44
2023/02/25 06:45:43;;;;;;;5.50;2.60;;;;;;;2.96;71.65;100271.59;5034630;28;20462;-44
2023/02/25 06:48:09;;;;;;;2.08;1.70;;;;;;;3.01;71.55;100279.44;5036258;28;20045;-43
2023/02/25 06:50:38;;;;;;;7.50;1.52;;;;;;;3.02;71.90;100276.94;5047371;28;20950;-41
2023/02/25 06:53:05;;;;;;;2.20;1.40;;;;;;;3.03;72.64;100283.78;5047082;28;20548;-46
2023/02/25 06:55:32;;;;;;;3.67;2.22;;;;;;;3.03;71.73;100294.00;5046992;28;20144;-42
2023/02/25 06:57:58;;;;;;;2.15;1.67;;;;;;;3.06;71.99;100294.13;5046951;28;20072;-47
2023/02/25 07:00:25;;;;;;;5.15;1.95;;;;;;;3.13;71.40;100294.28;5058534;28;20044;-46
2023/02/25 07:02:52;;;;;;;11.23;2.58;;;;;;;3.17;71.53;100301.25;5052426;28;20652;-41
2023/02/25 07:05:18;;;;;;;5.97;1.75;;;;;;;3.12;71.53;100297.69;5047007;28;20041;-46
2023/02/25 07:07:45;;;;;;;4.47;1.67;;;;;;;3.16;72.21;100299.53;5035612;28;20084;-43
2023/02/25 07:10:12;;;;;;;5.55;2.15;;;;;;;3.19;71.50;100304.75;5046583;28;20049;-44
2023/02/25 07:12:39;;;;;;;2.63;1.58;;;;;;;3.21;71.57;100303.13;5045975;28;20041;-45
2023/02/25 07:15:06;;;;;;;5.57;1.98;;;;;;;3.26;72.01;100314.34;5046371;28;20072;-41
2023/02/25 07:17:33;;;;;;;5.68;2.33;;;;;;;3.29;71.19;100321.25;5047386;28;20040;-43
2023/02/25 07:19:59;;;;;;;5.30;1.75;;;;;;;3.30;71.50;100329.00;5047216;28;20102;-44
2023/02/25 07:22:26;;;;;;;8.32;1.77;;;;;;;3.31;71.55;100324.75;5032276;28;20363;-44
2023/02/25 07:24:52;;;;;;;5.28;2.38;;;;;;;3.30;71.91;100318.75;5045995;28;20049;-43
2023/02/25 07:27:19;;;;;;;6.63;2.00;;;;;;;3.21;72.56;100323.59;5047052;28;20048;-45
2023/02/25 07:29:45;;;;;;;11.18;2.80;;;;;;;3.31;71.81;100327.31;5047574;28;20049;-41
2023/02/25 07:32:12;;;;;;;2.78;1.83;;;;;;;3.32;71.53;100332.44;5047141;28;20048;-40
2023/02/25 07:34:39;;;;;;;12.65;2.42;;;;;;;3.38;71.17;100333.50;5045486;28;20072;-43
2023/02/25 07:37:05;;;;;;;3.13;1.65;;;;;;;3.26;71.50;100337.41;5045388;28;20057;-40
2023/02/25 07:39:32;;;;;;;3.05;1.42;;;;;;;3.38;71.43;100336.06;5031295;28;20049;-44
2023/02/25 07:41:58;;;;;;;5.97;1.92;;;;;;;3.33;71.34;100344.47;5026832;28;20046;-43
2023/02/25 07:44:25;;;;;;;3.25;0.38;;;;;;;3.37;71.98;100342.84;5037364;28;20428;-41
2023/02/25 07:46:52;;;;;;;3.28;1.13;;;;;;;3.40;71.21;100340.38;5027172;28;20095;-44
2023/02/25 07:49:18;;;;;;;5.93;1.95;;;;;;;3.38;70.96;100336.06;5039821;28;20073;-40
2023/02/25 07:51:45;;;;;;;3.95;1.40;;;;;;;3.46;71.51;100339.72;5047109;28;20528;-44
2023/02/25 07:54:13;;;;;;;1.25;0.60;;;;;;;3.43;71.32;100347.28;5045562;28;20272;-42
2023/02/25 07:56:40;;;;;;;4.22;2.00;;;;;;;3.59;71.26;100344.38;5045109;28;20051;-42
2023/02/25 07:59:06;;;;;;;1.50;1.40;;;;;;;3.67;71.39;100325.81;5047974;28;20571;-40
2023/02/25 08:01:33;;;;;;;4.32;1.83;;;;;;;3.81;70.78;100342.47;5066481;28;20504;-45
2023/02/25 08:04:03;;;;;;;6.05;2.03;;;;;;;3.93;70.76;100346.22;5052368;28;20080;-43
2023/02/25 08:06:30;;;;;;;2.55;1.77;;;;;;;3.93;70.51;100356.47;5043080;28;20134;-45
2023/02/25 08:08:57;;;;;;;2.20;2.00;;;;;;;3.94;70.56;100358.22;5046329;28;20493;-43
2023/02/25 08:11:24;;;;;;;2.15;1.35;;;;;;;3.91;70.23;100365.78;5045793;28;20555;-43
2023/02/25 08:13:52;;;;;;;5.10;3.25;;;;;;;3.93;70.43;100359.03;5046542;28;20064;-44
2023/02/25 08:16:20;;;;;;;4.00;2.30;;;;;;;3.90;70.56;100364.06;5045113;28;20077;-45
2023/02/25 08:18:47;;;;;;;7.60;3.03;;;;;;;3.90;70.28;100370.06;5041887;28;20041;-43
2023/02/25 08:21:18;;;;;;;2.38;1.95;;;;;;;3.85;70.43;100359.69;5040005;28;20049;-42
2023/02/25 08:23:44;;;;;;;5.28;1.95;;;;;;;3.80;70.59;100381.75;5038908;28;20052;-43
2023/02/25 08:26:11;;;;;;;2.63;1.45;;;;;;;3.78;71.11;100373.13;5048778;28;20091;-42
2023/02/25 08:28:38;;;;;;;7.43;1.98;;;;;;;3.84;70.39;100373.31;5057001;28;20072;-43
2023/02/25 08:31:07;;;;;;;3.83;2.22;;;;;;;3.82;70.23;100380.06;5050690;28;20530;-43
2023/02/25 08:33:34;;;;;;;4.40;1.42;;;;;;;3.81;70.12;100373.22;5030508;28;20049;-43
2023/02/25 08:36:19;;;;;;;2.97;1.48;;;;;;;3.82;70.70;100363.84;5049222;28;20053;-39
2023/02/25 08:38:46;;;;;;;6.13;1.88;;;;;;;3.82;70.06;100380.06;5048729;28;20594;-42
2023/02/25 08:41:13;;;;;;;1.98;1.50;;;;;;;3.80;70.93;100375.72;5036872;28;20089;-48
2023/02/25 08:43:39;;;;;;;5.47;1.98;;;;;;;3.82;70.56;100381.78;5043783;28;20098;-42
2023/02/25 08:46:06;;;;;;;5.78;2.05;;;;;;;3.80;71.00;100376.63;5047618;28;20072;-45
2023/02/25 08:48:35;;;;;;;2.42;1.35;;;;;;;3.84;70.75;100378.44;5048391;28;20068;-44
2023/02/25 08:51:07;;;;;;;11.82;1.90;;;;;;;3.90;70.20;100375.19;5032172;28;20049;-45
2023/02/25 08:53:37;;;;;;;3.50;1.67;;;;;;;3.89;70.29;100386.28;5049374;28;20136;-44
2023/02/25 08:56:06;;;;;;;8.30;2.92;;;;;;;3.89;70.57;100375.16;5049640;28;20106;-41
2023/02/25 08:58:33;;;;;;;5.68;2.05;;;;;;;3.91;70.74;100373.47;5048160;28;20052;-42
2023/02/25 09:01:00;;;;;;;1.80;0.60;;;;;;;3.97;70.62;100373.69;5056120;28;20472;-45
2023/02/25 09:03:27;;;;;;;7.70;2.13;;;;;;;4.00;70.33;100381.47;5047868;28;20048;-44
2023/02/25 09:05:55;;;;;;;6.78;1.73;;;;;;;4.03;70.49;100379.00;5049672;28;20572;-42
2023/02/25 09:08:21;;;;;;;7.50;2.30;;;;;;;4.10;70.40;100380.94;5048678;28;20048;-43
2023/02/25 09:10:48;;;;;;;4.22;1.90;;;;;;;4.10;70.46;100365.53;5049077;28;20057;-41
2023/02/25 09:13:16;;;;;;;7.40;1.50;;;;;;;4.13;70.06;100384.38;5049095;28;20052;-45
2023/02/25 09:15:43;;;;;;;3.33;1.75;;;;;;;4.23;70.00;100391.53;5042744;28;20045;-43
2023/02/25 09:18:10;;;;;;;4.85;2.03;;;;;;;4.26;70.45;100386.50;5046906;28;20054;-41
2023/02/25 09:20:37;;;;;;;6.07;2.17;;;;;;;4.30;69.84;100388.31;5046058;28;20143;-40
2023/02/25 09:23:04;;;;;;;6.97;2.30;;;;;;;4.34;70.04;100395.28;5040465;28;20508;-40
2023/02/25 09:25:30;;;;;;;7.93;1.77;;;;;;;4.41;69.86;100391.19;5032928;28;20072;-41
2023/02/25 09:27:57;;;;;;;6.35;4.10;;;;;;;4.43;69.63;100404.03;5048484;28;20122;-41
2023/02/25 09:30:25;;;;;;;13.60;2.33;;;;;;;4.49;69.65;100388.81;5057710;28;20044;-42
2023/02/25 09:32:51;;;;;;;4.45;2.17;;;;;;;4.55;69.74;100389.00;5059769;28;20056;-43
2023/02/25 09:35:18;;;;;;;7.15;2.05;;;;;;;4.59;69.62;100395.94;5048835;28;20517;-43
2023/02/25 09:37:45;;;;;;;5.65;2.00;;;;;;;4.60;69.79;100404.50;5041160;28;20552;-43
2023/02/25 09:40:17;;;;;;;6.38;2.60;;;;;;;4.65;69.59;100400.38;5048804;28;20045;-44
2023/02/25 09:45:31;;;;;;;5.55;0.75;;;;;;;4.68;68.94;100397.00;5048650;27;20421;-42
2023/02/25 09:48:03;;;;;;;5.65;1.00;;;;;;;4.68;68.86;100405.59;5027469;28;20045;-43
2023/02/25 09:50:40;;;;;;;2.78;0.52;;;;;;;4.68;68.86;100404.72;5045053;28;20520;-43
2023/02/25 09:56:06;;;;;;;8.38;2.60;;;;;;;4.77;68.61;100399.84;5061091;28;20387;-44
2023/02/25 09:58:42;;;;;;;4.45;1.92;;;;;;;4.80;68.40;100399.06;5017863;28;20096;-41
2023/02/25 10:06:34;;;;;;;2.55;0.73;;;;;;;4.95;68.75;100403.72;5050421;27;20773;-41
2023/02/25 10:11:52;;;;;;;7.82;1.20;;;;;;;5.28;67.99;100402.84;5071509;27;20729;-40
2023/02/25 10:25:26;;;;;;;7.95;0.90;;;;;;;6.21;66.39;100413.53;5064414;28;20387;-40
2023/02/25 10:28:00;;;;;;;6.30;1.45;;;;;;;6.37;66.47;100420.72;5065225;28;20049;-43
2023/02/25 10:30:37;;;;;;;3.85;0.52;;;;;;;6.45;64.72;100412.28;5074636;28;20068;-46
2023/02/25 10:33:14;;;;;;;1.25;0.85;;;;;;;6.43;64.53;100412.25;5070700;28;20444;-45
2023/02/25 10:35:41;;;;;;;9.13;1.02;;;;;;;6.35;64.56;100427.53;5043888;28;20132;-41
2023/02/25 10:38:11;;;;;;;4.93;0.77;;;;;;;6.41;65.22;100437.97;5063412;28;20265;-40
2023/02/25 10:40:39;;;;;;;4.22;1.52;;;;;;;6.46;65.48;100429.47;5062071;28;20053;-43
2023/02/25 10:43:18;;;;;;;4.05;1.23;;;;;;;6.66;64.71;100423.00;5060493;28;20384;-43
2023/02/25 10:45:48;;;;;;;4.55;1.08;;;;;;;6.66;65.20;100437.59;5052475;28;20053;-42
2023/02/25 10:48:21;;;;;;;3.65;1.20;;;;;;;6.63;64.05;100435.81;5044109;28;20080;-44
2023/02/25 10:56:44;;;;;;;7.07;0.88;;;;;;;6.61;64.15;100440.06;5125924;27;20731;-44
2023/02/25 10:59:37;;;;;;;4.82;0.80;;;;;;;6.71;64.69;100445.38;5107046;28;20046;-46
2023/02/25 11:04:55;;;;;;;4.18;1.02;;;;;;;6.79;65.24;100454.16;5026532;27;20402;-41
2023/02/25 11:12:53;;;;;;;3.85;0.65;;;;;;;7.02;64.24;100453.69;5053672;28;20393;-42
2023/02/25 11:18:15;;;;;;;8.27;1.98;;;;;;;6.92;64.11;100450.94;5063832;28;20387;-42
2023/02/25 11:20:51;;;;;;;4.88;2.13;;;;;;;6.79;63.79;100449.00;5064246;28;20106;-41
2023/02/25 11:23:42;;;;;;;7.75;1.77;;;;;;;6.72;64.09;100457.44;5046400;28;20048;-43
2023/02/25 11:26:25;;;;;;;3.58;1.90;;;;;;;6.58;63.25;100455.44;5063484;28;20558;-42
2023/02/25 11:28:52;;;;;;;1.90;1.45;;;;;;;6.54;63.34;100458.78;5054961;28;20079;-45
2023/02/25 11:31:22;;;;;;;4.97;1.83;;;;;;;6.57;64.88;100453.72;5070488;28;20052;-44
2023/02/25 11:33:54;;;;;;;2.22;1.55;;;;;;;6.61;64.82;100460.66;5063794;28;20051;-45
2023/02/25 11:36:23;;;;;;;8.30;1.08;;;;;;;6.57;63.61;100453.72;5061305;28;20394;-46
2023/02/25 11:41:42;;;;;;;5.63;1.27;;;;;;;6.79;64.34;100451.56;5082644;27;20378;-45
2023/02/25 11:49:59;;;;;;;11.80;3.15;;;;;;;7.35;63.86;100442.25;5036749;27;20394;-46
2023/02/25 11:52:37;;;;;;;7.93;2.70;;;;;;;7.42;63.16;100446.69;5028644;28;20141;-40
2023/02/25 12:03:37;;;;;;;6.18;1.10;;;;;;;7.05;62.11;100457.19;5074211;27;20390;-44
2023/02/25 12:12:40;;;;;;;4.45;1.52;;;;;;;6.70;65.16;100457.41;5060790;28;20389;-48
2023/02/25 12:24:25;;;;;;;5.88;1.58;;;;;;;6.38;63.17;100448.19;5059250;28;20387;-43
2023/02/25 12:30:11;;;;;;;1.20;0.50;;;;;;;6.36;63.54;100449.88;5066259;28;20772;-46
2023/02/25 12:43:29;;;;;;;0.88;0.70;;;;;;;6.55;63.13;100445.94;5036434;27;20414;-44
2023/02/25 13:06:06;;;;;;;4.05;1.05;;;;;;;7.04;63.62;100423.69;5025652;27;20398;-45
2023/02/25 13:19:52;;;;;;;5.63;2.30;;;;;;;7.32;60.63;100408.69;5037676;27;20398;-46
2023/02/25 13:42:10;;;;;;;4.13;0.82;;;;;;;8.09;59.41;100414.16;5103599;27;20377;-43
2023/02/25 13:59:22;;;;;;;3.35;1.17;;;;;;;7.61;58.29;100454.72;5026806;27;20402;-45
2023/02/25 14:13:10;;;;;;;2.35;1.73;;;;;;;6.37;64.86;100486.72;5046635;28;20414;-45
2023/02/25 14:21:50;;;;;;;3.70;0.82;;;;;;;6.19;65.26;100476.91;5052139;28;20390;-43
2023/02/25 14:24:41;;;;;;;4.18;0.32;;;;;;;6.22;65.03;100471.84;5020678;28;20100;-45
2023/02/25 14:33:03;;;;;;;4.22;0.88;;;;;;;6.42;65.38;100480.84;5077919;27;20366;-47
2023/02/25 14:38:11;;;;;;;3.97;1.63;;;;;;;6.47;65.50;100477.50;5043663;28;20422;-48
2023/02/25 14:51:39;;;;;;;4.05;1.25;;;;;;;6.65;66.04;100471.88;5053953;27;20398;-44
2023/02/25 15:08:25;;;;;;;9.20;2.28;;;;;;;6.92;65.69;100489.59;5061719;28;20399;-45
2023/02/25 15:19:26;;;;;;;6.13;1.30;;;;;;;6.91;64.77;100490.44;5079368;27;20391;-43
2023/02/25 15:24:54;;;;;;;12.70;1.25;;;;;;;6.96;64.90;100502.53;5062143;28;20379;-43
2023/02/25 15:30:16;;;;;;;6.38;0.90;;;;;;;6.89;65.21;100507.53;5074527;27;20393;-45
2023/02/25 15:38:19;;;;;;;5.00;1.60;;;;;;;6.78;65.18;100519.31;5024363;27;20422;-43
2023/02/25 15:40:49;;;;;;;2.13;1.48;;;;;;;6.75;64.73;100519.28;5026598;28;20041;-40
2023/02/25 15:46:32;;;;;;;1.98;0.80;;;;;;;6.62;64.86;100521.59;5092069;27;20392;-43
2023/02/25 15:52:00;;;;;;;3.42;1.00;;;;;;;6.48;65.20;100529.00;5094059;27;20386;-43
2023/02/25 16:05:16;;;;;;;5.18;0.93;;;;;;;5.97;66.02;100532.97;5059907;28;20394;-46
2023/02/25 16:07:48;;;;;;;10.00;2.65;;;;;;;5.92;65.20;100535.44;5063151;28;20443;-46